sensor_id;sensor_type;location;lat;lon;timestamp;P1;durP1;ratioP1;P2;durP2;ratioP2
36501;SDS011;25393;46.108;3.390;2023-02-11T00:02:04;44.70;;;17.97;;
36501;SDS011;25393;46.108;3.390;2023-02-11T00:04:34;41.93;;;17.50;;
36501;SDS011;25393;46.108;3.390;2023-02-11T00:07:01;40.70;;;15.77;;
36501;SDS011;25393;46.108;3.390;2023-02-11T00:09:27;41.77;;;16.60;;
36501;SDS011;25393;46.108;3.390;2023-02-11T00:11:57;36.27;;;14.97;;
36501;SDS011;25393;46.108;3.390;2023-02-11T00:14:23;43.87;;;15.50;;
36501;SDS011;25393;46.108;3.390;2023-02-11T00:16:50;39.20;;;15.60;;
36501;SDS011;25393;46.108;3.390;2023-02-11T00:19:16;36.70;;;14.93;;
36501;SDS011;25393;46.108;3.390;2023-02-11T00:21:43;35.23;;;15.53;;
36501;SDS011;25393;46.108;3.390;2023-02-11T00:24:09;43.70;;;15.03;;
36501;SDS011;25393;46.108;3.390;2023-02-11T00:26:36;48.13;;;16.70;;
36501;SDS011;25393;46.108;3.390;2023-02-11T00:29:09;39.03;;;15.27;;
36501;SDS011;25393;46.108;3.390;2023-02-11T00:31:35;38.37;;;14.53;;
36501;SDS011;25393;46.108;3.390;2023-02-11T00:34:05;34.60;;;15.43;;
36501;SDS011;25393;46.108;3.390;2023-02-11T00:36:35;39.90;;;16.43;;
36501;SDS011;25393;46.108;3.390;2023-02-11T00:39:04;47.80;;;16.73;;
36501;SDS011;25393;46.108;3.390;2023-02-11T00:41:30;45.33;;;16.73;;
36501;SDS011;25393;46.108;3.390;2023-02-11T00:43:57;39.70;;;16.10;;
36501;SDS011;25393;46.108;3.390;2023-02-11T00:46:25;42.03;;;17.00;;
36501;SDS011;25393;46.108;3.390;2023-02-11T00:48:52;36.97;;;15.80;;
36501;SDS011;25393;46.108;3.390;2023-02-11T00:51:23;43.03;;;16.17;;
36501;SDS011;25393;46.108;3.390;2023-02-11T00:53:50;45.37;;;16.93;;
36501;SDS011;25393;46.108;3.390;2023-02-11T00:56:17;40.57;;;16.60;;
36501;SDS011;25393;46.108;3.390;2023-02-11T00:58:44;44.23;;;17.63;;
36501;SDS011;25393;46.108;3.390;2023-02-11T01:01:11;37.40;;;15.93;;
36501;SDS011;25393;46.108;3.390;2023-02-11T01:03:39;42.13;;;17.37;;
36501;SDS011;25393;46.108;3.390;2023-02-11T01:06:06;41.03;;;17.37;;
36501;SDS011;25393;46.108;3.390;2023-02-11T01:08:36;44.53;;;17.57;;
36501;SDS011;25393;46.108;3.390;2023-02-11T01:11:07;44.00;;;17.30;;
36501;SDS011;25393;46.108;3.390;2023-02-11T01:13:38;44.50;;;16.50;;
36501;SDS011;25393;46.108;3.390;2023-02-11T01:16:06;46.30;;;16.93;;
36501;SDS011;25393;46.108;3.390;2023-02-11T01:18:34;45.20;;;17.20;;
36501;SDS011;25393;46.108;3.390;2023-02-11T01:21:01;35.93;;;15.53;;
36501;SDS011;25393;46.108;3.390;2023-02-11T01:23:27;44.73;;;15.80;;
36501;SDS011;25393;46.108;3.390;2023-02-11T01:25:54;44.17;;;16.30;;
36501;SDS011;25393;46.108;3.390;2023-02-11T01:28:22;42.53;;;16.73;;
36501;SDS011;25393;46.108;3.390;2023-02-11T01:30:50;44.73;;;17.10;;
36501;SDS011;25393;46.108;3.390;2023-02-11T01:33:17;40.00;;;16.17;;
36501;SDS011;25393;46.108;3.390;2023-02-11T01:35:44;43.47;;;16.37;;
36501;SDS011;25393;46.108;3.390;2023-02-11T01:38:15;40.83;;;15.87;;
36501;SDS011;25393;46.108;3.390;2023-02-11T01:40:46;44.17;;;16.17;;
36501;SDS011;25393;46.108;3.390;2023-02-11T01:43:14;39.50;;;16.33;;
36501;SDS011;25393;46.108;3.390;2023-02-11T01:48:15;45.13;;;16.97;;
36501;SDS011;25393;46.108;3.390;2023-02-11T01:50:46;42.50;;;16.67;;
36501;SDS011;25393;46.108;3.390;2023-02-11T01:53:17;41.23;;;16.43;;
36501;SDS011;25393;46.108;3.390;2023-02-11T01:56:03;44.40;;;18.20;;
36501;SDS011;25393;46.108;3.390;2023-02-11T01:58:49;40.33;;;16.93;;
36501;SDS011;25393;46.108;3.390;2023-02-11T02:01:18;44.73;;;17.47;;
36501;SDS011;25393;46.108;3.390;2023-02-11T02:03:49;42.63;;;16.67;;
36501;SDS011;25393;46.108;3.390;2023-02-11T02:06:23;38.33;;;15.73;;
36501;SDS011;25393;46.108;3.390;2023-02-11T02:09:04;39.23;;;15.23;;
36501;SDS011;25393;46.108;3.390;2023-02-11T02:11:34;45.30;;;16.50;;
36501;SDS011;25393;46.108;3.390;2023-02-11T02:14:01;38.73;;;16.47;;
36501;SDS011;25393;46.108;3.390;2023-02-11T02:16:30;37.90;;;16.37;;
36501;SDS011;25393;46.108;3.390;2023-02-11T02:35:25;46.83;;;17.63;;
36501;SDS011;25393;46.108;3.390;2023-02-11T02:40:48;44.30;;;16.03;;
36501;SDS011;25393;46.108;3.390;2023-02-11T02:43:20;41.47;;;16.00;;
36501;SDS011;25393;46.108;3.390;2023-02-11T02:45:48;46.73;;;16.13;;
36501;SDS011;25393;46.108;3.390;2023-02-11T02:48:31;43.63;;;17.80;;
36501;SDS011;25393;46.108;3.390;2023-02-11T03:02:37;37.07;;;13.87;;
36501;SDS011;25393;46.108;3.390;2023-02-11T03:08:37;34.00;;;15.40;;
36501;SDS011;25393;46.108;3.390;2023-02-11T03:11:09;40.47;;;15.30;;
36501;SDS011;25393;46.108;3.390;2023-02-11T03:13:38;36.83;;;15.27;;
36501;SDS011;25393;46.108;3.390;2023-02-11T03:16:07;43.30;;;15.57;;
36501;SDS011;25393;46.108;3.390;2023-02-11T03:18:39;41.83;;;16.30;;
36501;SDS011;25393;46.108;3.390;2023-02-11T03:21:09;36.53;;;15.30;;
36501;SDS011;25393;46.108;3.390;2023-02-11T03:23:41;38.53;;;15.67;;
36501;SDS011;25393;46.108;3.390;2023-02-11T03:26:27;36.27;;;15.53;;
36501;SDS011;25393;46.108;3.390;2023-02-11T03:34:49;37.23;;;15.67;;
36501;SDS011;25393;46.108;3.390;2023-02-11T03:37:24;42.70;;;15.13;;
36501;SDS011;25393;46.108;3.390;2023-02-11T03:40:01;35.47;;;15.07;;
36501;SDS011;25393;46.108;3.390;2023-02-11T03:42:33;34.47;;;15.33;;
36501;SDS011;25393;46.108;3.390;2023-02-11T03:45:05;37.40;;;15.00;;
36501;SDS011;25393;46.108;3.390;2023-02-11T03:47:36;35.67;;;15.47;;
36501;SDS011;25393;46.108;3.390;2023-02-11T03:50:05;47.13;;;16.27;;
36501;SDS011;25393;46.108;3.390;2023-02-11T03:52:34;38.33;;;15.47;;
36501;SDS011;25393;46.108;3.390;2023-02-11T03:55:05;37.60;;;14.40;;
36501;SDS011;25393;46.108;3.390;2023-02-11T03:57:36;35.70;;;14.50;;
36501;SDS011;25393;46.108;3.390;2023-02-11T04:00:03;34.50;;;14.33;;
36501;SDS011;25393;46.108;3.390;2023-02-11T04:02:32;37.60;;;14.13;;
36501;SDS011;25393;46.108;3.390;2023-02-11T04:05:01;33.57;;;15.23;;
36501;SDS011;25393;46.108;3.390;2023-02-11T04:07:28;37.90;;;14.93;;
36501;SDS011;25393;46.108;3.390;2023-02-11T04:09:54;35.13;;;15.33;;
36501;SDS011;25393;46.108;3.390;2023-02-11T04:12:21;41.20;;;15.90;;
36501;SDS011;25393;46.108;3.390;2023-02-11T04:14:47;37.73;;;17.07;;
36501;SDS011;25393;46.108;3.390;2023-02-11T04:17:16;37.40;;;15.27;;
36501;SDS011;25393;46.108;3.390;2023-02-11T04:19:43;41.70;;;16.57;;
36501;SDS011;25393;46.108;3.390;2023-02-11T04:22:10;39.93;;;16.10;;
36501;SDS011;25393;46.108;3.390;2023-02-11T04:24:37;43.43;;;16.27;;
36501;SDS011;25393;46.108;3.390;2023-02-11T04:27:03;40.37;;;17.93;;
36501;SDS011;25393;46.108;3.390;2023-02-11T04:29:30;38.73;;;16.10;;
36501;SDS011;25393;46.108;3.390;2023-02-11T04:31:57;39.80;;;16.50;;
36501;SDS011;25393;46.108;3.390;2023-02-11T04:34:23;43.97;;;17.33;;
36501;SDS011;25393;46.108;3.390;2023-02-11T04:36:53;38.63;;;17.03;;
36501;SDS011;25393;46.108;3.390;2023-02-11T04:39:22;55.30;;;14.90;;
36501;SDS011;25393;46.108;3.390;2023-02-11T04:41:49;38.20;;;16.93;;
36501;SDS011;25393;46.108;3.390;2023-02-11T04:44:18;37.97;;;16.40;;
36501;SDS011;25393;46.108;3.390;2023-02-11T04:46:44;36.90;;;16.03;;
36501;SDS011;25393;46.108;3.390;2023-02-11T04:49:14;38.70;;;16.83;;
36501;SDS011;25393;46.108;3.390;2023-02-11T04:51:42;41.67;;;16.10;;
36501;SDS011;25393;46.108;3.390;2023-02-11T04:54:13;45.83;;;16.90;;
36501;SDS011;25393;46.108;3.390;2023-02-11T04:56:39;48.50;;;15.53;;
36501;SDS011;25393;46.108;3.390;2023-02-11T04:59:06;42.40;;;16.07;;
36501;SDS011;25393;46.108;3.390;2023-02-11T05:01:32;50.30;;;17.50;;
36501;SDS011;25393;46.108;3.390;2023-02-11T05:03:59;55.13;;;18.10;;
36501;SDS011;25393;46.108;3.390;2023-02-11T05:06:26;43.63;;;16.23;;
36501;SDS011;25393;46.108;3.390;2023-02-11T05:08:55;42.77;;;17.00;;
36501;SDS011;25393;46.108;3.390;2023-02-11T05:11:23;40.90;;;15.43;;
36501;SDS011;25393;46.108;3.390;2023-02-11T05:13:50;41.13;;;17.33;;
36501;SDS011;25393;46.108;3.390;2023-02-11T05:16:19;37.03;;;15.93;;
36501;SDS011;25393;46.108;3.390;2023-02-11T05:18:46;40.53;;;15.40;;
36501;SDS011;25393;46.108;3.390;2023-02-11T05:21:14;41.53;;;16.80;;
36501;SDS011;25393;46.108;3.390;2023-02-11T05:23:43;38.37;;;15.27;;
36501;SDS011;25393;46.108;3.390;2023-02-11T05:26:10;34.07;;;15.87;;
36501;SDS011;25393;46.108;3.390;2023-02-11T05:28:37;42.37;;;15.40;;
36501;SDS011;25393;46.108;3.390;2023-02-11T05:31:04;48.00;;;16.87;;
36501;SDS011;25393;46.108;3.390;2023-02-11T05:33:32;42.20;;;16.23;;
36501;SDS011;25393;46.108;3.390;2023-02-11T05:36:03;44.20;;;16.20;;
36501;SDS011;25393;46.108;3.390;2023-02-11T05:38:32;41.47;;;15.70;;
36501;SDS011;25393;46.108;3.390;2023-02-11T05:40:59;40.77;;;16.13;;
36501;SDS011;25393;46.108;3.390;2023-02-11T05:43:27;40.93;;;16.47;;
36501;SDS011;25393;46.108;3.390;2023-02-11T05:45:56;36.60;;;15.93;;
36501;SDS011;25393;46.108;3.390;2023-02-11T05:48:23;43.50;;;17.67;;
36501;SDS011;25393;46.108;3.390;2023-02-11T05:50:57;45.13;;;18.23;;
36501;SDS011;25393;46.108;3.390;2023-02-11T05:53:24;39.63;;;17.03;;
36501;SDS011;25393;46.108;3.390;2023-02-11T05:55:57;43.20;;;16.23;;
36501;SDS011;25393;46.108;3.390;2023-02-11T05:58:26;39.00;;;16.93;;
36501;SDS011;25393;46.108;3.390;2023-02-11T06:00:56;43.47;;;17.17;;
36501;SDS011;25393;46.108;3.390;2023-02-11T06:03:23;45.83;;;16.70;;
36501;SDS011;25393;46.108;3.390;2023-02-11T06:05:51;43.77;;;16.40;;
36501;SDS011;25393;46.108;3.390;2023-02-11T06:08:26;37.57;;;15.63;;
36501;SDS011;25393;46.108;3.390;2023-02-11T06:10:53;33.80;;;14.93;;
36501;SDS011;25393;46.108;3.390;2023-02-11T06:13:21;42.67;;;16.57;;
36501;SDS011;25393;46.108;3.390;2023-02-11T06:15:56;42.93;;;17.03;;
36501;SDS011;25393;46.108;3.390;2023-02-11T06:18:27;39.53;;;16.20;;
36501;SDS011;25393;46.108;3.390;2023-02-11T06:20:54;38.40;;;16.33;;
36501;SDS011;25393;46.108;3.390;2023-02-11T06:23:21;44.00;;;17.17;;
36501;SDS011;25393;46.108;3.390;2023-02-11T06:25:48;46.07;;;17.53;;
36501;SDS011;25393;46.108;3.390;2023-02-11T06:28:15;40.13;;;16.60;;
36501;SDS011;25393;46.108;3.390;2023-02-11T06:30:42;36.33;;;16.07;;
36501;SDS011;25393;46.108;3.390;2023-02-11T06:33:08;42.33;;;16.90;;
36501;SDS011;25393;46.108;3.390;2023-02-11T06:35:37;44.70;;;16.23;;
36501;SDS011;25393;46.108;3.390;2023-02-11T06:38:04;44.67;;;16.93;;
36501;SDS011;25393;46.108;3.390;2023-02-11T06:40:30;45.77;;;18.13;;
36501;SDS011;25393;46.108;3.390;2023-02-11T06:42:57;50.20;;;16.80;;
36501;SDS011;25393;46.108;3.390;2023-02-11T06:45:26;41.67;;;16.67;;
36501;SDS011;25393;46.108;3.390;2023-02-11T06:47:53;53.17;;;17.67;;
36501;SDS011;25393;46.108;3.390;2023-02-11T06:50:21;45.70;;;19.00;;
36501;SDS011;25393;46.108;3.390;2023-02-11T06:52:48;54.07;;;17.33;;
36501;SDS011;25393;46.108;3.390;2023-02-11T06:55:14;46.13;;;16.47;;
36501;SDS011;25393;46.108;3.390;2023-02-11T06:57:41;37.13;;;15.40;;
36501;SDS011;25393;46.108;3.390;2023-02-11T07:00:08;40.57;;;16.27;;
36501;SDS011;25393;46.108;3.390;2023-02-11T07:02:35;36.67;;;14.97;;
36501;SDS011;25393;46.108;3.390;2023-02-11T07:05:01;42.13;;;16.10;;
36501;SDS011;25393;46.108;3.390;2023-02-11T07:07:30;43.80;;;14.67;;
36501;SDS011;25393;46.108;3.390;2023-02-11T07:09:59;38.87;;;15.20;;
36501;SDS011;25393;46.108;3.390;2023-02-11T07:12:26;37.80;;;15.50;;
36501;SDS011;25393;46.108;3.390;2023-02-11T07:14:52;38.47;;;15.10;;
36501;SDS011;25393;46.108;3.390;2023-02-11T07:17:20;29.73;;;12.67;;
36501;SDS011;25393;46.108;3.390;2023-02-11T07:19:47;38.47;;;15.60;;
36501;SDS011;25393;46.108;3.390;2023-02-11T07:22:14;39.63;;;15.90;;
36501;SDS011;25393;46.108;3.390;2023-02-11T07:24:40;35.87;;;15.50;;
36501;SDS011;25393;46.108;3.390;2023-02-11T07:27:07;39.97;;;15.50;;
36501;SDS011;25393;46.108;3.390;2023-02-11T07:29:33;37.13;;;14.97;;
36501;SDS011;25393;46.108;3.390;2023-02-11T07:32:00;35.63;;;14.23;;
36501;SDS011;25393;46.108;3.390;2023-02-11T07:34:26;39.63;;;14.47;;
36501;SDS011;25393;46.108;3.390;2023-02-11T07:36:53;34.83;;;14.40;;
36501;SDS011;25393;46.108;3.390;2023-02-11T07:39:19;37.47;;;14.43;;
36501;SDS011;25393;46.108;3.390;2023-02-11T07:41:47;35.07;;;15.43;;
36501;SDS011;25393;46.108;3.390;2023-02-11T07:44:14;36.83;;;17.10;;
36501;SDS011;25393;46.108;3.390;2023-02-11T07:46:41;42.97;;;16.80;;
36501;SDS011;25393;46.108;3.390;2023-02-11T07:49:11;36.27;;;14.60;;
36501;SDS011;25393;46.108;3.390;2023-02-11T07:51:37;30.93;;;13.57;;
36501;SDS011;25393;46.108;3.390;2023-02-11T07:54:04;33.60;;;13.73;;
36501;SDS011;25393;46.108;3.390;2023-02-11T07:56:31;30.43;;;13.90;;
36501;SDS011;25393;46.108;3.390;2023-02-11T07:58:59;30.67;;;14.17;;
36501;SDS011;25393;46.108;3.390;2023-02-11T08:01:28;33.40;;;12.83;;
36501;SDS011;25393;46.108;3.390;2023-02-11T08:03:56;33.40;;;13.37;;
36501;SDS011;25393;46.108;3.390;2023-02-11T08:06:28;33.03;;;14.03;;
36501;SDS011;25393;46.108;3.390;2023-02-11T08:08:56;30.47;;;12.93;;
36501;SDS011;25393;46.108;3.390;2023-02-11T08:11:25;34.57;;;15.60;;
36501;SDS011;25393;46.108;3.390;2023-02-11T08:13:54;32.70;;;13.67;;
36501;SDS011;25393;46.108;3.390;2023-02-11T08:18:51;37.03;;;14.37;;
36501;SDS011;25393;46.108;3.390;2023-02-11T08:21:20;38.10;;;13.60;;
36501;SDS011;25393;46.108;3.390;2023-02-11T08:23:47;29.53;;;13.93;;
36501;SDS011;25393;46.108;3.390;2023-02-11T08:26:19;33.63;;;14.70;;
36501;SDS011;25393;46.108;3.390;2023-02-11T08:28:48;31.13;;;13.83;;
36501;SDS011;25393;46.108;3.390;2023-02-11T08:31:27;30.67;;;12.90;;
36501;SDS011;25393;46.108;3.390;2023-02-11T08:33:59;29.33;;;13.93;;
36501;SDS011;25393;46.108;3.390;2023-02-11T08:36:28;33.47;;;16.20;;
36501;SDS011;25393;46.108;3.390;2023-02-11T08:38:58;38.33;;;16.63;;
36501;SDS011;25393;46.108;3.390;2023-02-11T08:41:43;36.83;;;15.33;;
36501;SDS011;25393;46.108;3.390;2023-02-11T08:44:11;40.83;;;18.63;;
36501;SDS011;25393;46.108;3.390;2023-02-11T08:46:39;44.30;;;17.40;;
36501;SDS011;25393;46.108;3.390;2023-02-11T08:49:05;37.07;;;17.60;;
36501;SDS011;25393;46.108;3.390;2023-02-11T08:51:32;33.03;;;16.20;;
36501;SDS011;25393;46.108;3.390;2023-02-11T08:53:59;36.70;;;14.97;;
36501;SDS011;25393;46.108;3.390;2023-02-11T08:56:26;35.53;;;15.10;;
36501;SDS011;25393;46.108;3.390;2023-02-11T08:58:53;37.77;;;14.27;;
36501;SDS011;25393;46.108;3.390;2023-02-11T09:01:26;30.33;;;13.93;;
36501;SDS011;25393;46.108;3.390;2023-02-11T09:03:57;32.57;;;14.03;;
36501;SDS011;25393;46.108;3.390;2023-02-11T09:06:24;34.57;;;14.13;;
36501;SDS011;25393;46.108;3.390;2023-02-11T09:08:57;31.13;;;14.80;;
36501;SDS011;25393;46.108;3.390;2023-02-11T09:11:26;31.77;;;14.03;;
36501;SDS011;25393;46.108;3.390;2023-02-11T09:13:56;24.97;;;13.20;;
36501;SDS011;25393;46.108;3.390;2023-02-11T09:16:28;29.90;;;13.03;;
36501;SDS011;25393;46.108;3.390;2023-02-11T09:18:58;26.90;;;12.57;;
36501;SDS011;25393;46.108;3.390;2023-02-11T09:21:26;28.70;;;13.13;;
36501;SDS011;25393;46.108;3.390;2023-02-11T09:23:58;29.87;;;13.73;;
36501;SDS011;25393;46.108;3.390;2023-02-11T09:26:28;30.83;;;13.43;;
36501;SDS011;25393;46.108;3.390;2023-02-11T09:28:57;28.07;;;12.27;;
36501;SDS011;25393;46.108;3.390;2023-02-11T09:31:26;31.60;;;12.68;;
36501;SDS011;25393;46.108;3.390;2023-02-11T09:33:58;29.45;;;12.57;;
36501;SDS011;25393;46.108;3.390;2023-02-11T09:36:27;31.25;;;14.05;;
36501;SDS011;25393;46.108;3.390;2023-02-11T09:38:58;31.02;;;12.70;;
36501;SDS011;25393;46.108;3.390;2023-02-11T09:44:23;27.73;;;13.05;;
36501;SDS011;25393;46.108;3.390;2023-02-11T09:46:58;29.48;;;13.45;;
36501;SDS011;25393;46.108;3.390;2023-02-11T09:49:38;35.50;;;14.02;;
36501;SDS011;25393;46.108;3.390;2023-02-11T09:52:15;23.70;;;12.18;;
36501;SDS011;25393;46.108;3.390;2023-02-11T09:54:53;25.73;;;11.95;;
36501;SDS011;25393;46.108;3.390;2023-02-11T09:57:25;32.47;;;14.38;;
36501;SDS011;25393;46.108;3.390;2023-02-11T09:59:56;32.05;;;13.80;;
36501;SDS011;25393;46.108;3.390;2023-02-11T10:02:33;29.98;;;13.35;;
36501;SDS011;25393;46.108;3.390;2023-02-11T10:07:58;29.90;;;14.52;;
36501;SDS011;25393;46.108;3.390;2023-02-11T10:13:31;36.00;;;15.68;;
36501;SDS011;25393;46.108;3.390;2023-02-11T10:24:57;31.88;;;14.55;;
36501;SDS011;25393;46.108;3.390;2023-02-11T10:27:32;36.28;;;15.57;;
36501;SDS011;25393;46.108;3.390;2023-02-11T10:30:03;38.75;;;15.88;;
36501;SDS011;25393;46.108;3.390;2023-02-11T10:32:46;40.22;;;15.90;;
36501;SDS011;25393;46.108;3.390;2023-02-11T10:35:19;35.83;;;16.38;;
36501;SDS011;25393;46.108;3.390;2023-02-11T10:37:47;38.72;;;15.05;;
36501;SDS011;25393;46.108;3.390;2023-02-11T10:40:16;31.15;;;16.08;;
36501;SDS011;25393;46.108;3.390;2023-02-11T10:42:45;32.65;;;15.45;;
36501;SDS011;25393;46.108;3.390;2023-02-11T10:45:15;32.05;;;15.82;;
36501;SDS011;25393;46.108;3.390;2023-02-11T10:47:47;40.78;;;17.58;;
36501;SDS011;25393;46.108;3.390;2023-02-11T10:50:21;41.38;;;17.95;;
36501;SDS011;25393;46.108;3.390;2023-02-11T10:52:51;30.92;;;16.27;;
36501;SDS011;25393;46.108;3.390;2023-02-11T10:55:18;33.10;;;14.57;;
36501;SDS011;25393;46.108;3.390;2023-02-11T10:58:00;31.60;;;15.65;;
36501;SDS011;25393;46.108;3.390;2023-02-11T11:00:34;34.45;;;17.33;;
36501;SDS011;25393;46.108;3.390;2023-02-11T11:03:06;36.25;;;17.00;;
36501;SDS011;25393;46.108;3.390;2023-02-11T11:05:50;38.08;;;17.33;;
36501;SDS011;25393;46.108;3.390;2023-02-11T11:08:37;31.30;;;16.15;;
36501;SDS011;25393;46.108;3.390;2023-02-11T11:11:08;35.40;;;17.25;;
36501;SDS011;25393;46.108;3.390;2023-02-11T11:13:37;37.63;;;17.25;;
36501;SDS011;25393;46.108;3.390;2023-02-11T11:18:48;38.17;;;16.65;;
36501;SDS011;25393;46.108;3.390;2023-02-11T11:23:51;30.27;;;15.40;;
36501;SDS011;25393;46.108;3.390;2023-02-11T11:26:27;29.83;;;15.60;;
36501;SDS011;25393;46.108;3.390;2023-02-11T11:29:09;36.10;;;16.55;;
36501;SDS011;25393;46.108;3.390;2023-02-11T11:31:51;31.38;;;15.85;;
36501;SDS011;25393;46.108;3.390;2023-02-11T11:34:26;33.47;;;15.85;;
36501;SDS011;25393;46.108;3.390;2023-02-11T11:36:57;33.58;;;16.00;;
36501;SDS011;25393;46.108;3.390;2023-02-11T11:39:26;32.50;;;15.80;;
36501;SDS011;25393;46.108;3.390;2023-02-11T11:41:57;35.25;;;16.58;;
36501;SDS011;25393;46.108;3.390;2023-02-11T11:44:34;32.88;;;17.45;;
36501;SDS011;25393;46.108;3.390;2023-02-11T11:54:53;38.83;;;17.02;;
36501;SDS011;25393;46.108;3.390;2023-02-11T11:57:26;35.63;;;16.42;;
36501;SDS011;25393;46.108;3.390;2023-02-11T11:59:57;34.97;;;15.85;;
36501;SDS011;25393;46.108;3.390;2023-02-11T12:06:11;31.77;;;15.73;;
36501;SDS011;25393;46.108;3.390;2023-02-11T12:08:23;29.52;;;14.73;;
36501;SDS011;25393;46.108;3.390;2023-02-11T12:19:20;35.63;;;16.73;;
36501;SDS011;25393;46.108;3.390;2023-02-11T12:21:59;35.22;;;17.15;;
36501;SDS011;25393;46.108;3.390;2023-02-11T12:33:15;30.98;;;15.73;;
36501;SDS011;25393;46.108;3.390;2023-02-11T12:36:14;33.90;;;16.10;;
36501;SDS011;25393;46.108;3.390;2023-02-11T12:45:14;28.83;;;15.00;;
36501;SDS011;25393;46.108;3.390;2023-02-11T12:56:40;27.70;;;15.38;;
36501;SDS011;25393;46.108;3.390;2023-02-11T12:59:30;32.38;;;20.88;;
36501;SDS011;25393;46.108;3.390;2023-02-11T13:02:05;31.08;;;15.82;;
36501;SDS011;25393;46.108;3.390;2023-02-11T13:04:44;30.48;;;16.15;;
36501;SDS011;25393;46.108;3.390;2023-02-11T13:07:24;31.30;;;17.92;;
36501;SDS011;25393;46.108;3.390;2023-02-11T13:10:00;32.22;;;16.92;;
36501;SDS011;25393;46.108;3.390;2023-02-11T13:12:32;35.15;;;18.75;;
36501;SDS011;25393;46.108;3.390;2023-02-11T13:15:26;31.98;;;18.67;;
36501;SDS011;25393;46.108;3.390;2023-02-11T13:18:16;28.55;;;16.73;;
36501;SDS011;25393;46.108;3.390;2023-02-11T13:23:47;30.67;;;17.45;;
36501;SDS011;25393;46.108;3.390;2023-02-11T13:26:24;31.48;;;18.33;;
36501;SDS011;25393;46.108;3.390;2023-02-11T13:32:12;34.95;;;24.08;;
36501;SDS011;25393;46.108;3.390;2023-02-11T13:40:00;30.48;;;19.27;;
36501;SDS011;25393;46.108;3.390;2023-02-11T13:42:31;31.05;;;18.20;;
36501;SDS011;25393;46.108;3.390;2023-02-11T13:45:00;32.60;;;19.27;;
36501;SDS011;25393;46.108;3.390;2023-02-11T13:47:33;29.80;;;17.70;;
36501;SDS011;25393;46.108;3.390;2023-02-11T13:50:19;32.95;;;18.85;;
36501;SDS011;25393;46.108;3.390;2023-02-11T13:52:54;32.22;;;18.33;;
36501;SDS011;25393;46.108;3.390;2023-02-11T13:55:27;35.35;;;18.35;;
36501;SDS011;25393;46.108;3.390;2023-02-11T14:06:18;30.05;;;17.08;;
36501;SDS011;25393;46.108;3.390;2023-02-11T14:09:26;30.23;;;17.67;;
36501;SDS011;25393;46.108;3.390;2023-02-11T14:17:33;31.55;;;16.73;;
36501;SDS011;25393;46.108;3.390;2023-02-11T14:20:00;28.38;;;16.23;;
36501;SDS011;25393;46.108;3.390;2023-02-11T14:22:38;29.70;;;16.27;;
36501;SDS011;25393;46.108;3.390;2023-02-11T14:25:17;29.65;;;16.38;;
36501;SDS011;25393;46.108;3.390;2023-02-11T14:28:11;30.30;;;18.02;;
36501;SDS011;25393;46.108;3.390;2023-02-11T14:30:57;34.05;;;21.33;;
36501;SDS011;25393;46.108;3.390;2023-02-11T14:33:46;36.35;;;31.17;;
36501;SDS011;25393;46.108;3.390;2023-02-11T14:41:44;28.02;;;17.85;;
36501;SDS011;25393;46.108;3.390;2023-02-11T14:44:15;33.15;;;19.08;;
36501;SDS011;25393;46.108;3.390;2023-02-11T14:46:46;37.78;;;19.67;;
36501;SDS011;25393;46.108;3.390;2023-02-11T14:49:23;28.98;;;18.20;;
36501;SDS011;25393;46.108;3.390;2023-02-11T14:52:00;34.80;;;17.80;;
36501;SDS011;25393;46.108;3.390;2023-02-11T14:54:32;35.28;;;17.13;;
36501;SDS011;25393;46.108;3.390;2023-02-11T14:57:07;27.38;;;14.73;;
36501;SDS011;25393;46.108;3.390;2023-02-11T14:59:37;32.08;;;16.15;;
36501;SDS011;25393;46.108;3.390;2023-02-11T15:02:14;27.02;;;14.32;;
36501;SDS011;25393;46.108;3.390;2023-02-11T15:04:46;35.22;;;17.48;;
36501;SDS011;25393;46.108;3.390;2023-02-11T15:07:13;24.42;;;14.00;;
36501;SDS011;25393;46.108;3.390;2023-02-11T15:09:41;28.25;;;16.25;;
36501;SDS011;25393;46.108;3.390;2023-02-11T15:12:15;21.77;;;14.10;;
36501;SDS011;25393;46.108;3.390;2023-02-11T15:14:49;24.58;;;12.65;;
36501;SDS011;25393;46.108;3.390;2023-02-11T15:17:20;24.63;;;13.52;;
36501;SDS011;25393;46.108;3.390;2023-02-11T15:19:50;23.63;;;12.50;;
36501;SDS011;25393;46.108;3.390;2023-02-11T15:22:32;22.10;;;10.52;;
36501;SDS011;25393;46.108;3.390;2023-02-11T15:25:12;25.30;;;10.88;;
36501;SDS011;25393;46.108;3.390;2023-02-11T15:27:43;28.60;;;12.25;;
36501;SDS011;25393;46.108;3.390;2023-02-11T15:30:33;26.45;;;13.68;;
36501;SDS011;25393;46.108;3.390;2023-02-11T15:33:01;23.25;;;12.10;;
36501;SDS011;25393;46.108;3.390;2023-02-11T15:35:31;26.90;;;12.50;;
36501;SDS011;25393;46.108;3.390;2023-02-11T15:38:08;28.02;;;12.65;;
36501;SDS011;25393;46.108;3.390;2023-02-11T15:40:37;23.90;;;11.40;;
36501;SDS011;25393;46.108;3.390;2023-02-11T15:43:05;25.63;;;12.02;;
36501;SDS011;25393;46.108;3.390;2023-02-11T15:50:55;27.02;;;13.68;;
36501;SDS011;25393;46.108;3.390;2023-02-11T15:53:39;26.73;;;13.57;;
36501;SDS011;25393;46.108;3.390;2023-02-11T15:56:10;29.38;;;13.73;;
36501;SDS011;25393;46.108;3.390;2023-02-11T15:58:45;29.98;;;14.25;;
36501;SDS011;25393;46.108;3.390;2023-02-11T16:01:14;28.58;;;12.70;;
36501;SDS011;25393;46.108;3.390;2023-02-11T16:03:41;28.88;;;13.43;;
36501;SDS011;25393;46.108;3.390;2023-02-11T16:08:41;31.67;;;14.32;;
36501;SDS011;25393;46.108;3.390;2023-02-11T16:11:21;32.45;;;14.88;;
36501;SDS011;25393;46.108;3.390;2023-02-11T16:13:51;37.15;;;17.30;;
36501;SDS011;25393;46.108;3.390;2023-02-11T16:16:20;36.63;;;16.20;;
36501;SDS011;25393;46.108;3.390;2023-02-11T16:18:50;31.05;;;15.40;;
36501;SDS011;25393;46.108;3.390;2023-02-11T16:21:33;32.65;;;15.48;;
36501;SDS011;25393;46.108;3.390;2023-02-11T16:24:04;33.50;;;15.80;;
36501;SDS011;25393;46.108;3.390;2023-02-11T16:26:36;34.95;;;14.13;;
36501;SDS011;25393;46.108;3.390;2023-02-11T16:29:21;40.90;;;16.65;;
36501;SDS011;25393;46.108;3.390;2023-02-11T16:31:51;29.38;;;14.70;;
36501;SDS011;25393;46.108;3.390;2023-02-11T16:34:20;37.70;;;15.27;;
36501;SDS011;25393;46.108;3.390;2023-02-11T16:36:48;33.15;;;15.25;;
36501;SDS011;25393;46.108;3.390;2023-02-11T16:39:16;36.00;;;15.57;;
36501;SDS011;25393;46.108;3.390;2023-02-11T16:41:46;37.22;;;16.50;;
36501;SDS011;25393;46.108;3.390;2023-02-11T16:44:16;39.53;;;16.55;;
36501;SDS011;25393;46.108;3.390;2023-02-11T16:46:42;35.88;;;15.73;;
36501;SDS011;25393;46.108;3.390;2023-02-11T16:49:26;36.08;;;15.93;;
36501;SDS011;25393;46.108;3.390;2023-02-11T16:51:57;31.85;;;15.57;;
36501;SDS011;25393;46.108;3.390;2023-02-11T16:54:28;37.67;;;16.48;;
36501;SDS011;25393;46.108;3.390;2023-02-11T16:56:55;36.95;;;17.20;;
36501;SDS011;25393;46.108;3.390;2023-02-11T16:59:22;34.53;;;16.45;;
36501;SDS011;25393;46.108;3.390;2023-02-11T17:01:52;33.45;;;17.00;;
36501;SDS011;25393;46.108;3.390;2023-02-11T17:04:20;36.88;;;15.40;;
36501;SDS011;25393;46.108;3.390;2023-02-11T17:06:50;40.08;;;16.38;;
36501;SDS011;25393;46.108;3.390;2023-02-11T17:09:20;36.65;;;16.13;;
36501;SDS011;25393;46.108;3.390;2023-02-11T17:11:54;34.88;;;16.42;;
36501;SDS011;25393;46.108;3.390;2023-02-11T17:14:20;42.80;;;17.33;;